createdAt,value
2023-04-20T00:00:22.038Z,10.00
2023-04-20T00:02:48.742Z,10.45
2023-04-20T00:05:15.374Z,9.35
2023-04-20T00:07:41.888Z,9.85
2023-04-20T00:10:09.093Z,8.70
2023-04-20T00:12:35.864Z,7.13
2023-04-20T00:15:02.515Z,8.68
2023-04-20T00:17:28.926Z,9.95
2023-04-20T00:19:55.345Z,10.77
2023-04-20T00:22:21.714Z,6.65
2023-04-20T00:24:48.120Z,8.63
2023-04-20T00:27:14.516Z,7.53
2023-04-20T00:29:41.029Z,9.43
2023-04-20T00:32:07.428Z,10.10
2023-04-20T00:34:33.829Z,10.60
2023-04-20T00:37:00.912Z,7.70
2023-04-20T00:39:27.436Z,7.82
2023-04-20T00:41:54.242Z,11.15
2023-04-20T00:44:20.691Z,7.80
2023-04-20T00:46:47.149Z,9.85
2023-04-20T00:49:13.629Z,7.10
2023-04-20T00:51:40.145Z,8.65
2023-04-20T00:54:07.012Z,10.38
2023-04-20T00:56:34.053Z,6.47
2023-04-20T00:59:01.806Z,7.00
2023-04-20T01:01:29.025Z,7.55
2023-04-20T01:03:55.754Z,8.18
2023-04-20T01:06:22.429Z,9.15
2023-04-20T01:08:51.809Z,7.93
2023-04-20T01:11:18.492Z,9.15
2023-04-20T01:13:45.348Z,13.40
2023-04-20T01:16:12.178Z,9.32
2023-04-20T01:18:47.187Z,10.05
2023-04-20T01:21:14.885Z,8.98
2023-04-20T01:23:41.353Z,8.20
2023-04-20T01:26:09.316Z,8.80
2023-04-20T01:28:35.946Z,10.77
2023-04-20T01:31:04.141Z,9.63
2023-04-20T01:33:31.939Z,8.65
2023-04-20T01:35:58.365Z,8.48
2023-04-20T01:38:25.803Z,8.80
2023-04-20T01:40:52.908Z,11.90
2023-04-20T01:43:22.418Z,14.45
2023-04-20T01:45:48.938Z,6.55
2023-04-20T01:48:15.619Z,13.82
2023-04-20T01:50:42.216Z,11.13
2023-04-20T01:53:08.687Z,10.48
2023-04-20T01:55:35.210Z,13.77
2023-04-20T01:58:01.637Z,11.40
2023-04-20T02:00:28.103Z,12.10
2023-04-20T02:03:53.923Z,9.48
2023-04-20T02:06:21.070Z,9.52
2023-04-20T02:08:47.831Z,9.43
2023-04-20T02:11:14.364Z,9.98
2023-04-20T02:13:40.904Z,14.25
2023-04-20T02:16:07.540Z,8.73
2023-04-20T02:18:34.041Z,10.20
2023-04-20T02:21:01.354Z,8.70
2023-04-20T02:23:27.921Z,13.20
2023-04-20T02:25:55.538Z,11.05
2023-04-20T02:28:22.007Z,10.10
2023-04-20T02:30:48.516Z,11.57
2023-04-20T02:33:14.982Z,11.77
2023-04-20T02:35:41.378Z,8.73
2023-04-20T02:38:10.670Z,8.35
2023-04-20T02:40:38.661Z,12.73
2023-04-20T02:43:05.863Z,14.75
2023-04-20T02:45:34.184Z,16.05
2023-04-20T02:48:00.862Z,25.75
2023-04-20T02:50:30.697Z,35.50
2023-04-20T02:53:23.276Z,19.88
2023-04-20T02:55:57.908Z,13.88
2023-04-20T02:58:36.051Z,20.52
2023-04-20T03:01:25.742Z,14.13
2023-04-20T03:04:00.589Z,16.05
2023-04-20T03:06:27.819Z,13.90
2023-04-20T03:08:56.556Z,14.95
2023-04-20T03:11:52.871Z,13.55
2023-04-20T03:14:34.699Z,13.20
2023-04-20T03:17:02.573Z,11.05
2023-04-20T03:19:29.008Z,10.48
2023-04-20T03:21:55.660Z,13.68
2023-04-20T03:24:22.772Z,16.98
2023-04-20T03:26:49.492Z,12.52
2023-04-20T03:29:19.274Z,11.48
2023-04-20T03:31:46.461Z,15.05
2023-04-20T03:34:12.946Z,21.67
2023-04-20T03:36:40.045Z,12.85
2023-04-20T03:39:06.861Z,12.68
2023-04-20T03:41:33.327Z,13.35
2023-04-20T03:43:59.921Z,14.50
2023-04-20T03:46:26.767Z,19.45
2023-04-20T03:48:53.294Z,18.67
2023-04-20T03:51:19.738Z,18.15
2023-04-20T03:53:46.219Z,23.25
2023-04-20T03:56:13.644Z,24.08
2023-04-20T03:58:40.217Z,18.95
2023-04-20T04:01:13.340Z,19.75
2023-04-20T04:03:44.669Z,14.68
2023-04-20T04:06:12.447Z,13.88
2023-04-20T04:08:38.891Z,16.60
2023-04-20T04:11:05.363Z,21.75
2023-04-20T04:13:34.438Z,20.63
2023-04-20T04:16:02.108Z,19.20
2023-04-20T04:18:32.313Z,22.70
2023-04-20T04:21:05.156Z,18.65
2023-04-20T04:23:34.556Z,20.80
2023-04-20T04:28:45.903Z,20.15
2023-04-20T04:31:21.528Z,21.77
2023-04-20T04:33:48.224Z,19.50
2023-04-20T04:36:28.685Z,18.40
2023-04-20T04:38:57.588Z,16.52
2023-04-20T04:41:25.493Z,19.30
2023-04-20T04:43:54.384Z,19.17
2023-04-20T04:46:27.712Z,17.75
2023-04-20T04:48:56.848Z,19.27
2023-04-20T04:51:24.122Z,18.73
2023-04-20T04:53:50.727Z,17.70
2023-04-20T04:56:18.440Z,19.23
2023-04-20T04:58:45.575Z,18.95
2023-04-20T05:01:12.212Z,21.52
2023-04-20T05:03:38.806Z,19.40
2023-04-20T05:06:05.616Z,20.10
2023-04-20T05:08:32.084Z,20.15
2023-04-20T05:10:58.550Z,19.58
2023-04-20T05:13:25.030Z,19.88
2023-04-20T05:15:51.502Z,18.98
2023-04-20T05:18:18.092Z,16.13
2023-04-20T05:20:44.531Z,17.13
2023-04-20T05:23:11.365Z,20.08
2023-04-20T05:25:37.934Z,18.35
2023-04-20T05:28:04.561Z,19.88
2023-04-20T05:30:31.371Z,19.05
2023-04-20T05:32:57.815Z,20.02
2023-04-20T05:35:24.320Z,15.52
2023-04-20T05:37:50.761Z,17.52
2023-04-20T05:40:17.395Z,17.67
2023-04-20T05:42:44.832Z,21.65
2023-04-20T05:45:11.480Z,21.85
2023-04-20T05:47:37.980Z,25.08
2023-04-20T05:50:04.956Z,16.52
2023-04-20T05:52:31.424Z,18.45
2023-04-20T05:54:59.359Z,23.35
2023-04-20T05:57:26.003Z,20.63
2023-04-20T05:59:52.599Z,20.90
2023-04-20T06:02:19.266Z,21.75
2023-04-20T06:04:46.221Z,22.42
2023-04-20T06:07:12.794Z,19.60
2023-04-20T06:09:39.234Z,19.95
2023-04-20T06:12:05.835Z,21.52
2023-04-20T06:14:32.279Z,22.02
2023-04-20T06:16:58.713Z,21.35
2023-04-20T06:19:25.140Z,24.75
2023-04-20T06:21:51.642Z,18.35
2023-04-20T06:24:18.112Z,24.23
2023-04-20T06:26:44.524Z,20.05
2023-04-20T06:29:10.967Z,20.75
2023-04-20T06:31:37.467Z,19.75
2023-04-20T06:34:04.019Z,18.08
2023-04-20T06:36:31.188Z,18.00
2023-04-20T06:38:57.647Z,18.23
2023-04-20T06:41:24.074Z,21.50
2023-04-20T06:43:50.572Z,16.02
2023-04-20T06:46:17.168Z,22.27
2023-04-20T06:48:43.635Z,24.98
2023-04-20T06:51:12.907Z,18.45
2023-04-20T06:53:39.351Z,19.20
2023-04-20T06:56:06.556Z,21.70
2023-04-20T06:58:32.955Z,19.85
2023-04-20T07:00:59.460Z,21.40
2023-04-20T07:03:25.993Z,21.92
2023-04-20T07:05:52.554Z,24.27
2023-04-20T07:08:18.997Z,19.17
2023-04-20T07:10:45.538Z,24.45
2023-04-20T07:13:11.980Z,25.75
2023-04-20T07:15:38.435Z,21.92
2023-04-20T07:18:05.146Z,21.77
2023-04-20T07:20:31.686Z,22.92
2023-04-20T07:22:58.111Z,19.38
2023-04-20T07:25:25.534Z,21.42
2023-04-20T07:27:51.988Z,23.23
2023-04-20T07:30:18.404Z,24.23
2023-04-20T07:32:45.039Z,21.13
2023-04-20T07:35:11.602Z,21.52
2023-04-20T07:37:38.072Z,21.27
2023-04-20T07:40:06.710Z,17.85
2023-04-20T07:42:34.813Z,20.50
2023-04-20T07:45:01.561Z,26.70
2023-04-20T07:47:28.080Z,24.73
2023-04-20T07:49:54.871Z,22.05
2023-04-20T07:52:21.472Z,23.42
2023-04-20T07:54:48.038Z,24.77
2023-04-20T07:57:15.125Z,26.92
2023-04-20T07:59:41.696Z,25.98
2023-04-20T08:02:08.681Z,25.83
2023-04-20T08:04:38.865Z,25.17
2023-04-20T08:07:05.681Z,27.88
2023-04-20T08:09:32.326Z,26.73
2023-04-20T08:11:58.796Z,33.50
2023-04-20T08:14:25.237Z,27.02
2023-04-20T08:16:51.722Z,29.02
2023-04-20T08:19:18.383Z,28.80
2023-04-20T08:21:45.023Z,28.42
2023-04-20T08:24:12.165Z,29.98
2023-04-20T08:26:39.607Z,30.88
2023-04-20T08:29:06.804Z,22.88
2023-04-20T08:31:33.284Z,26.48
2023-04-20T08:33:59.905Z,25.77
2023-04-20T08:36:26.720Z,25.85
2023-04-20T08:38:57.034Z,25.92
2023-04-20T08:41:25.307Z,26.08
2023-04-20T08:43:51.999Z,23.73
2023-04-20T08:46:19.342Z,25.48
2023-04-20T08:48:48.539Z,24.73
2023-04-20T08:51:17.010Z,27.20
2023-04-20T08:53:44.059Z,28.15
2023-04-20T08:56:10.899Z,24.80
2023-04-20T08:58:42.112Z,24.40
2023-04-20T09:01:10.677Z,27.38
2023-04-20T09:03:39.248Z,25.40
2023-04-20T09:06:07.053Z,22.48
2023-04-20T09:08:38.899Z,25.00
2023-04-20T09:11:05.560Z,26.15
2023-04-20T09:13:32.522Z,24.77
2023-04-20T09:16:10.172Z,29.98
2023-04-20T09:18:37.969Z,24.00
2023-04-20T09:21:08.938Z,29.35
2023-04-20T09:23:35.354Z,26.42
2023-04-20T09:26:01.817Z,28.35
2023-04-20T09:28:41.709Z,24.35
2023-04-20T09:31:18.939Z,29.63
2023-04-20T09:33:45.597Z,27.77
2023-04-20T09:36:12.131Z,28.67
2023-04-20T09:38:38.604Z,27.17
2023-04-20T09:41:06.901Z,31.35
2023-04-20T09:43:35.312Z,27.00
2023-04-20T09:46:03.362Z,29.25
2023-04-20T09:48:32.046Z,27.80
2023-04-20T09:51:01.853Z,29.88
2023-04-20T09:53:30.174Z,29.67
2023-04-20T09:55:58.403Z,33.95
2023-04-20T09:58:24.838Z,29.67
2023-04-20T10:00:51.597Z,30.00
2023-04-20T10:03:19.360Z,28.42
2023-04-20T10:05:46.235Z,30.42
2023-04-20T10:08:12.682Z,27.38
2023-04-20T10:10:49.868Z,24.73
2023-04-20T10:13:19.417Z,30.17
2023-04-20T10:15:46.260Z,27.45
2023-04-20T10:18:21.098Z,25.38
2023-04-20T10:20:47.680Z,24.63
2023-04-20T10:23:15.970Z,23.50
2023-04-20T10:25:44.969Z,24.45
2023-04-20T10:28:11.954Z,25.48
2023-04-20T10:30:51.002Z,25.23
2023-04-20T10:33:18.052Z,25.50
2023-04-20T10:35:56.114Z,27.10
2023-04-20T10:38:33.419Z,26.73
2023-04-20T10:41:10.563Z,30.15
2023-04-20T10:43:43.715Z,26.05
2023-04-20T10:46:24.481Z,29.27
2023-04-20T10:48:51.702Z,25.48
2023-04-20T10:51:18.930Z,28.80
2023-04-20T10:53:45.480Z,26.20
2023-04-20T10:56:11.996Z,24.63
2023-04-20T10:58:38.568Z,29.38
2023-04-20T11:01:05.309Z,28.20
2023-04-20T11:03:34.310Z,33.20
2023-04-20T11:06:02.553Z,29.02
2023-04-20T11:08:43.139Z,29.70
2023-04-20T11:11:19.809Z,28.17
2023-04-20T11:13:47.117Z,26.80
2023-04-20T11:16:16.418Z,24.40
2023-04-20T11:18:56.406Z,27.75
2023-04-20T11:21:22.868Z,29.70
2023-04-20T11:23:50.360Z,31.33
2023-04-20T11:26:17.093Z,32.05
2023-04-20T11:28:55.919Z,34.90
2023-04-20T11:31:23.317Z,31.63
2023-04-20T11:33:50.163Z,30.33
2023-04-20T11:36:24.018Z,33.10
2023-04-20T11:38:51.036Z,30.25
2023-04-20T11:41:17.836Z,30.52
2023-04-20T11:43:45.574Z,23.05
2023-04-20T11:46:16.803Z,22.00
2023-04-20T11:51:09.976Z,16.58
2023-04-20T11:53:37.428Z,19.83
2023-04-20T11:56:04.576Z,17.83
2023-04-20T11:58:31.098Z,16.92
2023-04-20T12:00:57.613Z,19.50
2023-04-20T12:03:24.158Z,17.20
2023-04-20T12:05:51.208Z,16.70
2023-04-20T12:08:17.756Z,15.75
2023-04-20T12:10:44.677Z,14.30
2023-04-20T12:13:11.157Z,16.40
2023-04-20T12:15:37.694Z,16.25
2023-04-20T12:18:04.314Z,14.57
2023-04-20T12:20:30.784Z,15.20
2023-04-20T12:22:58.555Z,14.55
2023-04-20T12:25:25.546Z,15.50
2023-04-20T12:27:52.077Z,14.95
2023-04-20T12:30:18.548Z,14.23
2023-04-20T12:32:45.038Z,12.35
2023-04-20T12:35:11.617Z,15.75
2023-04-20T12:37:38.065Z,13.55
2023-04-20T12:40:06.411Z,11.65
2023-04-20T12:42:33.013Z,10.40
2023-04-20T12:44:59.487Z,12.50
2023-04-20T12:47:26.175Z,12.68
2023-04-20T12:49:52.572Z,13.20
2023-04-20T12:52:19.183Z,12.02
2023-04-20T12:54:46.228Z,11.23
2023-04-20T12:57:13.032Z,12.30
2023-04-20T12:59:39.417Z,13.40
2023-04-20T13:02:06.302Z,14.20
2023-04-20T13:04:32.895Z,13.27
2023-04-20T13:06:59.330Z,16.02
2023-04-20T13:09:27.138Z,17.73
2023-04-20T13:11:53.906Z,19.15
2023-04-20T13:14:20.920Z,20.88
2023-04-20T13:16:47.794Z,21.48
2023-04-20T13:19:14.489Z,21.42
2023-04-20T13:21:40.951Z,18.23
2023-04-20T13:24:07.589Z,20.17
2023-04-20T13:26:34.238Z,23.63
2023-04-20T13:29:00.772Z,24.02
2023-04-20T13:31:27.279Z,23.45
2023-04-20T13:33:54.843Z,21.77
2023-04-20T13:36:23.068Z,24.40
2023-04-20T13:38:54.398Z,22.63
2023-04-20T13:43:47.419Z,26.25
2023-04-20T13:46:15.300Z,28.05
2023-04-20T13:48:41.962Z,21.45
2023-04-20T13:51:08.574Z,19.25
2023-04-20T13:53:35.100Z,21.35
2023-04-20T13:56:01.648Z,17.80
2023-04-20T13:58:28.727Z,20.08
2023-04-20T14:00:55.313Z,18.75
2023-04-20T14:03:21.974Z,20.08
2023-04-20T14:05:50.324Z,18.05
2023-04-20T14:08:18.131Z,17.92
2023-04-20T14:10:44.543Z,21.95
2023-04-20T14:13:11.195Z,18.50
2023-04-20T14:15:37.824Z,21.02
2023-04-20T14:18:04.409Z,23.30
2023-04-20T14:20:30.873Z,19.33
2023-04-20T14:22:57.336Z,19.80
2023-04-20T14:25:23.800Z,21.15
2023-04-20T14:27:50.296Z,22.60
2023-04-20T14:30:16.717Z,22.65
2023-04-20T14:32:53.998Z,19.52
2023-04-20T14:35:20.720Z,23.05
2023-04-20T14:37:47.122Z,28.55
2023-04-20T14:40:13.661Z,26.10
2023-04-20T14:42:40.655Z,22.35
2023-04-20T14:45:08.162Z,28.40
2023-04-20T14:47:34.777Z,23.85
2023-04-20T14:50:01.221Z,26.70
2023-04-20T14:52:27.822Z,27.85
2023-04-20T14:54:54.274Z,26.95
2023-04-20T14:57:20.729Z,30.92
2023-04-20T14:59:47.150Z,29.58
2023-04-20T15:02:14.192Z,30.70
2023-04-20T15:04:40.897Z,29.38
2023-04-20T15:07:07.480Z,32.45
2023-04-20T15:09:33.961Z,32.90
2023-04-20T15:12:01.851Z,31.67
2023-04-20T15:14:28.341Z,29.65
2023-04-20T15:16:55.024Z,35.30
2023-04-20T15:19:22.784Z,31.90
2023-04-20T15:21:49.247Z,34.92
2023-04-20T15:24:15.961Z,32.30
2023-04-20T15:26:42.493Z,30.80
2023-04-20T15:29:08.922Z,28.30
2023-04-20T15:31:35.487Z,34.47
2023-04-20T15:34:01.930Z,33.88
2023-04-20T15:36:28.588Z,30.63
2023-04-20T15:38:57.439Z,31.35
2023-04-20T15:41:24.272Z,28.80
2023-04-20T15:43:51.276Z,32.13
2023-04-20T15:46:17.782Z,34.38
2023-04-20T15:48:44.901Z,39.35
2023-04-20T15:51:11.531Z,37.13
2023-04-20T15:53:38.066Z,38.47
2023-04-20T15:56:04.761Z,45.50
2023-04-20T15:58:31.210Z,58.63
2023-04-20T16:00:57.840Z,45.42
2023-04-20T16:03:24.517Z,65.88
2023-04-20T16:05:51.207Z,55.47
2023-04-20T16:08:18.936Z,44.92
2023-04-20T16:10:45.380Z,41.70
2023-04-20T16:13:11.951Z,38.95
2023-04-20T16:15:39.036Z,36.22
2023-04-20T16:18:05.704Z,39.85
2023-04-20T16:20:32.288Z,34.58
2023-04-20T16:22:58.801Z,34.03
2023-04-20T16:25:25.841Z,37.28
2023-04-20T16:27:52.472Z,34.53
2023-04-20T16:30:19.077Z,35.45
2023-04-20T16:32:45.871Z,28.63
2023-04-20T16:35:12.547Z,30.73
2023-04-20T16:37:39.037Z,30.10
2023-04-20T16:40:06.198Z,29.67
2023-04-20T16:42:32.697Z,34.15
2023-04-20T16:45:00.382Z,34.75
2023-04-20T16:47:26.995Z,26.40
2023-04-20T16:49:53.665Z,29.50
2023-04-20T16:52:20.090Z,29.67
2023-04-20T16:54:46.505Z,31.23
2023-04-20T16:57:12.918Z,31.70
2023-04-20T16:59:39.346Z,33.13
2023-04-20T17:02:06.058Z,27.40
2023-04-20T17:04:32.785Z,29.63
2023-04-20T17:06:59.313Z,27.17
2023-04-20T17:09:25.939Z,28.77
2023-04-20T17:11:52.728Z,25.27
2023-04-20T17:14:19.284Z,27.27
2023-04-20T17:16:45.983Z,27.55
2023-04-20T17:19:12.499Z,28.80
2023-04-20T17:21:40.460Z,26.38
2023-04-20T17:24:06.932Z,27.50
2023-04-20T17:26:33.377Z,24.35
2023-04-20T17:29:00.297Z,28.50
2023-04-20T17:31:26.780Z,27.52
2023-04-20T17:33:53.203Z,28.70
2023-04-20T17:36:19.594Z,27.35
2023-04-20T17:38:46.380Z,29.52
2023-04-20T17:41:12.855Z,32.38
2023-04-20T17:43:40.538Z,33.10
2023-04-20T17:46:07.815Z,32.45
2023-04-20T17:48:34.495Z,32.13
2023-04-20T17:51:00.956Z,33.55
2023-04-20T17:53:27.598Z,31.73
2023-04-20T17:55:54.023Z,33.85
2023-04-20T17:58:20.538Z,38.38
2023-04-20T18:00:47.680Z,34.20
2023-04-20T18:03:14.839Z,34.30
2023-04-20T18:05:41.966Z,33.83
2023-04-20T18:08:10.048Z,33.90
2023-04-20T18:10:37.501Z,41.50
2023-04-20T18:13:04.148Z,43.00
2023-04-20T18:15:30.620Z,38.53
2023-04-20T18:17:57.152Z,37.20
2023-04-20T18:20:23.905Z,45.83
2023-04-20T18:22:50.594Z,38.17
2023-04-20T18:25:18.850Z,38.38
2023-04-20T18:27:45.895Z,37.45
2023-04-20T18:30:13.715Z,37.88
2023-04-20T18:32:40.550Z,40.00
2023-04-20T18:35:07.884Z,34.20
2023-04-20T18:37:34.287Z,33.53
2023-04-20T18:40:00.763Z,35.22
2023-04-20T18:42:27.274Z,61.45
2023-04-20T18:44:53.737Z,51.58
2023-04-20T18:47:22.038Z,89.90
2023-04-20T18:49:48.486Z,78.05
2023-04-20T18:52:14.930Z,60.67
2023-04-20T18:54:41.677Z,46.38
2023-04-20T18:57:08.427Z,35.50
2023-04-20T18:59:34.959Z,34.05
2023-04-20T19:02:01.538Z,35.00
2023-04-20T19:04:29.218Z,33.80
2023-04-20T19:06:55.757Z,35.45
2023-04-20T19:09:22.188Z,31.45
2023-04-20T19:11:49.856Z,32.47
2023-04-20T19:14:16.455Z,26.83
2023-04-20T19:16:43.218Z,30.33
2023-04-20T19:19:10.166Z,35.28
2023-04-20T19:21:36.591Z,30.65
2023-04-20T19:24:03.174Z,30.90
2023-04-20T19:26:29.618Z,26.75
2023-04-20T19:28:57.661Z,25.45
2023-04-20T19:31:24.122Z,26.08
2023-04-20T19:33:50.585Z,24.30
2023-04-20T19:36:19.105Z,28.60
2023-04-20T19:38:45.797Z,26.75
2023-04-20T19:41:12.300Z,26.88
2023-04-20T19:43:38.850Z,26.63
2023-04-20T19:46:09.460Z,30.17
2023-04-20T19:48:36.741Z,24.30
2023-04-20T19:51:03.876Z,24.95
2023-04-20T19:53:30.445Z,25.35
2023-04-20T19:55:57.189Z,26.73
2023-04-20T19:58:23.732Z,25.67
2023-04-20T20:00:50.411Z,31.67
2023-04-20T20:03:16.966Z,25.38
2023-04-20T20:05:44.045Z,22.80
2023-04-20T20:08:11.636Z,20.88
2023-04-20T20:10:38.098Z,17.08
2023-04-20T20:13:04.728Z,17.33
2023-04-20T20:15:32.175Z,19.88
2023-04-20T20:17:59.404Z,19.95
2023-04-20T20:20:32.258Z,19.65
2023-04-20T20:22:59.821Z,22.73
2023-04-20T20:25:26.458Z,20.48
2023-04-20T20:27:53.073Z,24.58
2023-04-20T20:30:19.646Z,26.05
2023-04-20T20:32:46.638Z,28.80
2023-04-20T20:35:13.302Z,30.02
2023-04-20T20:37:40.733Z,32.97
2023-04-20T20:40:10.335Z,36.15
2023-04-20T20:42:38.744Z,36.65
2023-04-20T20:45:07.161Z,38.45
2023-04-20T20:47:33.925Z,38.47
2023-04-20T20:50:00.350Z,41.25
2023-04-20T20:52:26.798Z,37.63
2023-04-20T20:54:53.267Z,37.65
2023-04-20T20:57:20.590Z,39.63
2023-04-20T20:59:47.013Z,45.10
2023-04-20T21:02:13.556Z,43.45
2023-04-20T21:04:40.144Z,38.67
2023-04-20T21:07:06.696Z,50.50
2023-04-20T21:09:33.118Z,101.95
2023-04-20T21:12:00.754Z,103.95
2023-04-20T21:14:27.321Z,213.82
2023-04-20T21:16:53.919Z,165.00
2023-04-20T21:19:20.705Z,174.38
2023-04-20T21:21:47.511Z,81.18
2023-04-20T21:24:13.989Z,49.20
2023-04-20T21:26:40.418Z,39.67
2023-04-20T21:29:07.125Z,51.72
2023-04-20T21:31:33.631Z,41.03
2023-04-20T21:34:00.461Z,48.65
2023-04-20T21:36:27.839Z,37.90
2023-04-20T21:38:54.303Z,40.83
2023-04-20T21:41:21.657Z,39.42
2023-04-20T21:43:48.067Z,42.58
2023-04-20T21:46:17.538Z,41.20
2023-04-20T21:48:43.999Z,40.55
2023-04-20T21:51:17.609Z,40.78
2023-04-20T21:53:44.489Z,39.92
2023-04-20T21:56:11.369Z,41.15
2023-04-20T21:58:37.751Z,61.47
2023-04-20T22:01:04.298Z,63.53
2023-04-20T22:03:31.343Z,80.85
2023-04-20T22:05:58.789Z,50.28
2023-04-20T22:08:25.688Z,135.30
2023-04-20T22:10:52.444Z,62.40
2023-04-20T22:13:18.909Z,74.72
2023-04-20T22:15:47.305Z,52.83
2023-04-20T22:18:14.334Z,45.95
2023-04-20T22:20:40.788Z,56.08
2023-04-20T22:23:07.210Z,54.28
2023-04-20T22:25:33.652Z,58.78
2023-04-20T22:28:00.147Z,43.38
2023-04-20T22:30:26.700Z,43.67
2023-04-20T22:32:53.147Z,209.13
2023-04-20T22:35:19.864Z,159.75
2023-04-20T22:37:46.310Z,300.60
2023-04-20T22:40:14.107Z,294.67
2023-04-20T22:42:40.630Z,139.35
2023-04-20T22:45:09.417Z,170.82
2023-04-20T22:47:36.043Z,185.52
2023-04-20T22:50:03.359Z,229.07
2023-04-20T22:52:29.852Z,272.23
2023-04-20T22:54:56.380Z,210.25
2023-04-20T22:57:22.885Z,65.35
2023-04-20T22:59:49.375Z,160.93
2023-04-20T23:02:16.439Z,264.50
2023-04-20T23:04:45.934Z,567.45
2023-04-20T23:07:12.316Z,411.60
2023-04-20T23:09:41.218Z,259.70
2023-04-20T23:12:11.548Z,70.35
2023-04-20T23:14:39.067Z,182.68
2023-04-20T23:17:06.537Z,212.65
2023-04-20T23:19:33.376Z,245.48
2023-04-20T23:22:00.758Z,214.07
2023-04-20T23:24:27.251Z,104.20
2023-04-20T23:26:53.757Z,163.07
2023-04-20T23:29:20.312Z,67.60
2023-04-20T23:31:46.922Z,234.82
2023-04-20T23:34:13.457Z,164.65
2023-04-20T23:36:39.927Z,193.68
2023-04-20T23:39:06.671Z,172.05
2023-04-20T23:41:33.192Z,103.47
2023-04-20T23:43:59.683Z,153.07
2023-04-20T23:46:26.753Z,84.43
2023-04-20T23:48:55.292Z,108.10
2023-04-20T23:51:22.045Z,198.45
2023-04-20T23:53:48.443Z,216.13
2023-04-20T23:56:14.889Z,149.15
2023-04-20T23:58:41.349Z,122.55
